Time;durP1;ratioP1;P1;durP2;ratioP2;P2;SDS_P1;SDS_P2;PMS_P1;PMS_P2;Temp;Humidity;BMP_temperature;BMP_pressure;BME280_temperature;BME280_humidity;BME280_pressure;Samples;Min_cycle;Max_cycle;Signal;HPM_P1;HPM_P2
2024/04/12 00:01:16;;;;;;;14.65;10.95;;;14.60;99.90;;;;;;5489486;26;19998;-77
2024/04/12 00:03:43;;;;;;;13.80;10.45;;;14.60;99.90;;;;;;5488686;26;20013;-77
2024/04/12 00:06:17;;;;;;;15.90;11.13;;;14.60;99.90;;;;;;5489495;26;20091;-76
2024/04/12 00:08:48;;;;;;;17.13;10.98;;;14.60;99.90;;;;;;5489937;26;20031;-77
2024/04/12 00:11:21;;;;;;;12.90;9.40;;;14.60;99.90;;;;;;5488274;26;20028;-77
2024/04/12 00:13:48;;;;;;;16.13;10.48;;;14.60;99.90;;;;;;5489325;26;20062;-78
2024/04/12 00:16:23;;;;;;;15.23;10.93;;;14.60;99.90;;;;;;5489469;26;20014;-77
2024/04/12 00:19:12;;;;;;;15.30;11.85;;;14.60;99.90;;;;;;5489357;26;19994;-77
2024/04/12 00:21:41;;;;;;;13.93;10.15;;;14.60;99.90;;;;;;5489762;26;20339;-76
2024/04/12 00:24:12;;;;;;;12.27;10.35;;;14.60;99.90;;;;;;5487453;26;20372;-77
2024/04/12 00:26:43;;;;;;;13.45;11.00;;;14.60;99.90;;;;;;5489589;26;20376;-77
2024/04/12 00:29:25;;;;;;;15.95;11.63;;;14.60;99.90;;;;;;5489500;26;19994;-76
2024/04/12 00:32:16;;;;;;;16.70;11.70;;;14.60;99.90;;;;;;5489528;26;20006;-77
2024/04/12 00:34:48;;;;;;;12.80;10.35;;;14.60;99.90;;;;;;5489290;26;20010;-77
2024/04/12 00:37:16;;;;;;;15.88;11.90;;;14.60;99.90;;;;;;5489524;26;19998;-76
2024/04/12 00:39:53;;;;;;;17.13;12.98;;;14.60;99.90;;;;;;5488722;26;20006;-77
2024/04/12 00:42:26;;;;;;;15.32;12.13;;;14.60;99.90;;;;;;5487664;26;20099;-76
2024/04/12 00:44:54;;;;;;;17.45;12.43;;;14.50;99.90;;;;;;5488962;26;20340;-76
2024/04/12 00:47:20;;;;;;;18.45;12.50;;;14.50;99.90;;;;;;5489390;26;20009;-77
2024/04/12 00:49:50;;;;;;;16.05;12.23;;;14.50;99.90;;;;;;5489202;26;20009;-76
2024/04/12 00:52:22;;;;;;;15.45;12.32;;;14.50;99.90;;;;;;5487409;26;19994;-76
2024/04/12 00:55:07;;;;;;;15.60;12.45;;;14.50;99.90;;;;;;5489261;26;19994;-76
2024/04/12 00:57:40;;;;;;;18.23;13.30;;;14.50;99.90;;;;;;5487016;26;20332;-76
2024/04/12 01:00:11;;;;;;;16.38;12.75;;;14.50;99.90;;;;;;5489025;26;19998;-77
2024/04/12 01:02:41;;;;;;;16.95;13.18;;;14.50;99.90;;;;;;5489233;26;20039;-76
2024/04/12 01:05:11;;;;;;;16.58;13.55;;;14.50;99.90;;;;;;5488074;26;19990;-76
2024/04/12 01:07:38;;;;;;;19.58;14.00;;;14.50;99.90;;;;;;5487220;26;20062;-76
2024/04/12 01:10:11;;;;;;;16.77;12.82;;;14.50;99.90;;;;;;5486565;26;19998;-76
2024/04/12 01:12:37;;;;;;;17.73;13.93;;;14.50;99.90;;;;;;5486856;26;19998;-77
2024/04/12 01:15:07;;;;;;;18.65;15.07;;;14.50;99.90;;;;;;5488148;26;20443;-77
2024/04/12 01:17:37;;;;;;;18.67;14.35;;;14.50;99.90;;;;;;5488683;26;20005;-77
2024/04/12 01:20:06;;;;;;;19.55;13.82;;;14.50;99.90;;;;;;5489094;26;19998;-76
2024/04/12 01:22:35;;;;;;;16.30;13.25;;;14.50;99.90;;;;;;5489050;26;20009;-76
2024/04/12 01:25:02;;;;;;;17.00;13.32;;;14.50;99.90;;;;;;5488755;26;20002;-77
2024/04/12 01:27:34;;;;;;;18.40;14.35;;;14.50;99.90;;;;;;5488367;26;20009;-77
2024/04/12 01:30:00;;;;;;;20.40;15.68;;;14.50;99.90;;;;;;5488509;26;20005;-77
2024/04/12 01:32:26;;;;;;;21.52;15.85;;;14.50;99.90;;;;;;5488594;26;19990;-77
2024/04/12 01:34:52;;;;;;;19.27;14.60;;;14.50;99.90;;;;;;5488318;26;19994;-77
2024/04/12 01:37:20;;;;;;;21.15;16.02;;;14.50;99.90;;;;;;5488438;26;19998;-77
2024/04/12 01:40:02;;;;;;;21.80;16.83;;;14.50;99.90;;;;;;5487803;26;20004;-77
2024/04/12 01:42:37;;;;;;;21.70;17.02;;;14.50;99.90;;;;;;5488517;26;19994;-77
2024/04/12 01:45:13;;;;;;;17.77;14.70;;;14.50;99.90;;;;;;5488282;26;20066;-77
2024/04/12 01:47:39;;;;;;;23.42;18.17;;;14.50;99.90;;;;;;5486745;26;20009;-77
2024/04/12 01:50:05;;;;;;;19.42;15.60;;;14.50;99.90;;;;;;5487264;26;19994;-77
2024/04/12 01:52:31;;;;;;;20.05;16.75;;;14.50;99.90;;;;;;5488443;26;20108;-78
2024/04/12 01:55:07;;;;;;;20.95;16.50;;;14.50;99.90;;;;;;5487528;26;19998;-77
2024/04/12 01:57:32;;;;;;;21.15;15.57;;;14.50;99.90;;;;;;5488778;26;20406;-77
2024/04/12 02:00:01;;;;;;;22.58;17.63;;;14.50;99.90;;;;;;5487478;26;20129;-77
2024/04/12 02:02:28;;;;;;;20.50;16.05;;;14.50;99.90;;;;;;5488106;26;20026;-77
2024/04/12 02:04:56;;;;;;;19.98;14.45;;;14.40;99.90;;;;;;5487372;26;20009;-78
2024/04/12 02:07:27;;;;;;;20.33;15.57;;;14.50;99.90;;;;;;5489260;26;20062;-77
2024/04/12 02:10:07;;;;;;;21.83;17.02;;;14.50;99.90;;;;;;5485679;26;20005;-77
2024/04/12 02:12:36;;;;;;;21.88;15.90;;;14.40;99.90;;;;;;5489404;26;20524;-78
2024/04/12 02:15:19;;;;;;;20.38;16.02;;;14.40;99.90;;;;;;5486503;26;19998;-78
2024/04/12 02:17:53;;;;;;;19.88;15.13;;;14.40;99.90;;;;;;5486347;26;20002;-77
2024/04/12 02:20:22;;;;;;;18.40;13.98;;;14.40;99.90;;;;;;5485117;26;20071;-78
2024/04/12 02:22:49;;;;;;;18.20;15.23;;;14.40;99.90;;;;;;5488499;26;20018;-78
2024/04/12 02:25:19;;;;;;;16.42;13.20;;;14.40;99.90;;;;;;5487033;26;19995;-78
2024/04/12 02:27:55;;;;;;;14.18;11.65;;;14.40;99.90;;;;;;5485973;26;19994;-78
2024/04/12 02:30:23;;;;;;;14.77;12.68;;;14.40;99.90;;;;;;5486953;26;20070;-78
2024/04/12 02:32:50;;;;;;;15.68;12.38;;;14.40;99.90;;;;;;5488277;26;20006;-78
2024/04/12 02:35:21;;;;;;;15.30;12.55;;;14.30;99.90;;;;;;5485146;26;20009;-78
2024/04/12 02:37:48;;;;;;;15.75;13.55;;;14.30;99.90;;;;;;5488591;26;20005;-78
2024/04/12 02:40:15;;;;;;;13.70;11.82;;;14.30;99.90;;;;;;5486729;26;19998;-78
2024/04/12 02:42:43;;;;;;;14.93;11.85;;;14.40;99.90;;;;;;5487781;26;19994;-78
2024/04/12 02:45:12;;;;;;;15.13;11.88;;;14.30;99.90;;;;;;5486677;26;20265;-78
2024/04/12 02:47:44;;;;;;;16.63;13.05;;;14.30;99.90;;;;;;5487990;26;20002;-79
2024/04/12 02:50:10;;;;;;;16.38;13.02;;;14.30;99.90;;;;;;5486919;26;20006;-78
2024/04/12 02:52:38;;;;;;;15.63;13.23;;;14.30;99.90;;;;;;5487519;26;20133;-78
2024/04/12 02:55:13;;;;;;;16.70;13.10;;;14.30;99.90;;;;;;5484171;26;20009;-78
2024/04/12 02:57:51;;;;;;;16.33;12.85;;;14.30;99.90;;;;;;5487069;26;19997;-77
2024/04/12 03:00:23;;;;;;;15.95;12.52;;;14.30;99.90;;;;;;5486758;26;20006;-78
2024/04/12 03:02:53;;;;;;;15.52;12.75;;;14.30;99.90;;;;;;5487511;26;20412;-78
2024/04/12 03:05:20;;;;;;;21.95;13.60;;;14.30;99.90;;;;;;5486155;26;19994;-78
2024/04/12 03:07:46;;;;;;;16.77;13.25;;;14.30;99.90;;;;;;5486651;26;19994;-78
2024/04/12 03:10:18;;;;;;;15.13;12.20;;;14.30;99.90;;;;;;5486345;26;19994;-78
2024/04/12 03:12:51;;;;;;;16.40;12.90;;;14.30;99.90;;;;;;5486918;26;19998;-78
2024/04/12 03:15:18;;;;;;;15.57;12.98;;;14.40;99.90;;;;;;5487050;26;20002;-78
2024/04/12 03:17:47;;;;;;;16.17;12.70;;;14.40;99.90;;;;;;5486620;26;19994;-78
2024/04/12 03:20:18;;;;;;;15.77;12.65;;;14.40;99.90;;;;;;5486549;26;20334;-78
2024/04/12 03:22:47;;;;;;;17.55;13.32;;;14.30;99.90;;;;;;5484621;26;19999;-79
2024/04/12 03:25:15;;;;;;;17.95;14.35;;;14.30;99.90;;;;;;5485755;26;19994;-79
2024/04/12 03:27:42;;;;;;;15.45;12.77;;;14.30;99.90;;;;;;5487243;26;20005;-79
2024/04/12 03:30:14;;;;;;;14.77;11.45;;;14.40;99.90;;;;;;5489930;26;20013;-77
2024/04/12 03:32:44;;;;;;;14.75;12.52;;;14.40;99.90;;;;;;5490588;26;20006;-77
2024/04/12 03:35:17;;;;;;;13.43;11.23;;;14.30;99.90;;;;;;5489801;26;20026;-79
2024/04/12 03:40:30;;;;;;;13.55;10.88;;;14.30;99.90;;;;;;5489699;26;20100;-79
2024/04/12 03:43:02;;;;;;;12.85;10.90;;;14.30;99.90;;;;;;5490016;26;20366;-79
2024/04/12 03:45:31;;;;;;;12.35;10.55;;;14.30;99.90;;;;;;5489483;26;20009;-79
2024/04/12 03:47:58;;;;;;;11.57;9.50;;;14.30;99.90;;;;;;5490200;26;20006;-78
2024/04/12 03:50:30;;;;;;;11.63;9.93;;;14.30;99.90;;;;;;5489206;26;20092;-78
2024/04/12 03:53:14;;;;;;;12.30;10.18;;;14.30;99.90;;;;;;5488691;26;19998;-79
2024/04/12 03:55:46;;;;;;;12.20;10.32;;;14.30;99.90;;;;;;5489140;26;20054;-79
2024/04/12 03:58:17;;;;;;;13.23;10.27;;;14.30;99.90;;;;;;5487950;26;19994;-79
2024/04/12 04:00:44;;;;;;;12.90;10.48;;;14.30;99.90;;;;;;5490187;26;19994;-78
2024/04/12 04:03:30;;;;;;;12.73;10.95;;;14.30;99.90;;;;;;5489701;26;20324;-79
2024/04/12 04:05:56;;;;;;;14.57;11.10;;;14.30;99.90;;;;;;5489082;26;20066;-79
2024/04/12 04:08:22;;;;;;;15.10;11.10;;;14.30;99.90;;;;;;5489690;26;19994;-80
2024/04/12 04:10:49;;;;;;;14.43;10.55;;;14.30;99.90;;;;;;5489804;26;19994;-80
2024/04/12 04:13:15;;;;;;;12.10;10.43;;;14.30;99.90;;;;;;5490150;26;20002;-79
2024/04/12 04:15:50;;;;;;;12.75;10.13;;;14.30;99.90;;;;;;5488356;26;20026;-80
2024/04/12 04:18:17;;;;;;;12.77;11.00;;;14.30;99.90;;;;;;5489315;26;19994;-80
2024/04/12 04:20:49;;;;;;;13.43;10.32;;;14.30;99.90;;;;;;5489707;26;20037;-80
2024/04/12 04:23:17;;;;;;;14.48;10.30;;;14.30;99.90;;;;;;5489498;26;19994;-80
2024/04/12 04:25:44;;;;;;;11.73;9.52;;;14.30;99.90;;;;;;5489005;26;19998;-80
2024/04/12 04:28:09;;;;;;;12.93;10.93;;;14.30;99.90;;;;;;5489828;26;19998;-80
2024/04/12 04:30:35;;;;;;;12.75;9.98;;;14.30;99.90;;;;;;5488652;26;20008;-80
2024/04/12 04:33:01;;;;;;;12.35;10.80;;;14.30;99.90;;;;;;5490383;26;20012;-80
2024/04/12 04:35:28;;;;;;;12.65;9.88;;;14.30;99.90;;;;;;5488888;26;20004;-80
2024/04/12 04:37:55;;;;;;;13.45;11.05;;;14.30;99.90;;;;;;5490851;26;19990;-78
2024/04/12 04:40:25;;;;;;;14.48;10.98;;;14.30;99.90;;;;;;5487820;26;20008;-81
2024/04/12 04:42:54;;;;;;;12.23;10.32;;;14.30;99.90;;;;;;5488072;26;20009;-80
2024/04/12 04:45:21;;;;;;;11.88;10.52;;;14.30;99.90;;;;;;5488218;26;19994;-80
2024/04/12 04:47:47;;;;;;;10.75;9.63;;;14.30;99.90;;;;;;5487992;26;20005;-80
2024/04/12 04:50:17;;;;;;;15.95;9.70;;;14.30;99.90;;;;;;5486130;26;20336;-79
2024/04/12 04:52:44;;;;;;;11.80;10.57;;;14.30;99.90;;;;;;5489955;26;20483;-80
2024/04/12 04:55:12;;;;;;;12.75;9.55;;;14.30;99.90;;;;;;5488306;26;20002;-78
2024/04/12 04:57:43;;;;;;;10.57;9.32;;;14.30;99.90;;;;;;5489509;26;20331;-78
2024/04/12 05:00:18;;;;;;;11.15;8.75;;;14.30;99.90;;;;;;5488211;26;20074;-78
2024/04/12 05:02:49;;;;;;;11.88;9.50;;;14.30;99.90;;;;;;5489606;26;20002;-78
2024/04/12 05:05:23;;;;;;;10.68;9.18;;;14.40;99.90;;;;;;5488640;26;20552;-79
2024/04/12 05:07:58;;;;;;;11.25;9.38;;;14.30;99.90;;;;;;5490364;26;20077;-79
2024/04/12 05:10:25;;;;;;;15.88;10.18;;;14.40;99.90;;;;;;5488513;26;20323;-79
2024/04/12 05:12:50;;;;;;;12.07;9.60;;;14.40;99.90;;;;;;5489588;26;20014;-80
2024/04/12 05:18:05;;;;;;;12.55;9.48;;;14.40;99.90;;;;;;5489041;26;20347;-80
2024/04/12 05:20:39;;;;;;;12.05;9.68;;;14.30;99.90;;;;;;5488126;26;20006;-80
2024/04/12 05:23:12;;;;;;;12.15;9.25;;;14.40;99.90;;;;;;5489829;26;19994;-81
2024/04/12 05:25:41;;;;;;;12.95;10.05;;;14.40;99.90;;;;;;5487820;26;20383;-81
2024/04/12 05:28:13;;;;;;;12.15;9.82;;;14.40;99.90;;;;;;5489160;26;20045;-81
2024/04/12 05:30:42;;;;;;;12.57;9.38;;;14.40;99.90;;;;;;5487904;26;20006;-80
2024/04/12 05:33:12;;;;;;;13.60;9.48;;;14.40;99.90;;;;;;5488294;26;19998;-80
2024/04/12 05:35:40;;;;;;;13.20;9.38;;;14.50;99.90;;;;;;5488067;26;20006;-81
2024/04/12 05:38:08;;;;;;;11.30;8.32;;;14.50;99.90;;;;;;5488498;26;20078;-80
2024/04/12 05:40:42;;;;;;;13.15;9.43;;;14.50;99.90;;;;;;5487990;26;19994;-80
2024/04/12 05:43:14;;;;;;;14.38;9.43;;;14.50;99.90;;;;;;5488695;26;20395;-80
2024/04/12 05:45:55;;;;;;;12.63;9.18;;;14.50;99.90;;;;;;5488552;26;20005;-80
2024/04/12 05:48:21;;;;;;;11.35;8.85;;;14.50;99.90;;;;;;5488057;26;20343;-80
2024/04/12 05:50:48;;;;;;;13.48;8.52;;;14.60;99.90;;;;;;5486782;26;20434;-80
2024/04/12 05:53:19;;;;;;;12.52;9.02;;;14.60;99.90;;;;;;5486216;26;19998;-80
2024/04/12 05:55:45;;;;;;;;;;;14.60;99.90;;;;;;5488830;26;20386;-80
2024/04/12 05:58:23;;;;;;;11.70;7.63;;;14.60;99.90;;;;;;5488358;26;19937;-80
2024/04/12 06:00:50;;;;;;;12.20;8.25;;;14.70;99.90;;;;;;5488242;26;20012;-80
2024/04/12 06:03:16;;;;;;;12.55;8.43;;;14.70;99.90;;;;;;5487704;26;19994;-80
2024/04/12 06:05:42;;;;;;;12.95;8.48;;;14.70;99.90;;;;;;5488162;26;20008;-81
2024/04/12 06:08:08;;;;;;;13.57;9.30;;;14.70;99.90;;;;;;5488331;26;20432;-80
2024/04/12 06:10:33;;;;;;;10.70;7.50;;;14.70;99.90;;;;;;5485858;26;20008;-81
2024/04/12 06:13:06;;;;;;;12.30;9.10;;;14.70;99.90;;;;;;5487782;26;20649;-80
2024/04/12 06:15:36;;;;;;;13.38;9.07;;;14.80;99.90;;;;;;5488025;26;19994;-80
2024/04/12 06:18:08;;;;;;;13.95;9.77;;;14.80;99.90;;;;;;5487704;26;19994;-80
2024/04/12 06:20:34;;;;;;;16.00;10.00;;;14.80;99.90;;;;;;5487867;26;20030;-80
2024/04/12 06:23:06;;;;;;;13.18;9.30;;;14.80;99.90;;;;;;5487612;26;20002;-79
2024/04/12 06:25:43;;;;;;;13.75;9.50;;;14.80;99.90;;;;;;5486874;26;20005;-80
2024/04/12 06:28:13;;;;;;;13.75;10.20;;;14.90;99.90;;;;;;5488074;26;20006;-80
2024/04/12 06:30:47;;;;;;;13.00;10.90;;;14.90;99.90;;;;;;5487707;26;20426;-80
2024/04/12 06:33:25;;;;;;;14.98;10.40;;;14.90;99.90;;;;;;5488198;26;20085;-80
2024/04/12 06:36:04;;;;;;;16.60;10.73;;;15.00;99.90;;;;;;5487591;26;20004;-80
2024/04/12 06:38:33;;;;;;;14.98;9.55;;;15.00;99.90;;;;;;5487642;26;19990;-79
2024/04/12 06:41:14;;;;;;;13.55;9.88;;;15.00;99.90;;;;;;5487146;26;20412;-80
2024/04/12 06:43:42;;;;;;;16.35;11.32;;;15.00;99.90;;;;;;5487349;26;20030;-80
2024/04/12 06:46:08;;;;;;;14.88;11.32;;;15.00;99.90;;;;;;5487338;26;20112;-79
2024/04/12 06:48:41;;;;;;;15.02;10.65;;;15.10;99.90;;;;;;5487344;26;19998;-80
2024/04/12 06:51:11;;;;;;;16.88;12.82;;;15.10;99.90;;;;;;5486764;26;19998;-79
2024/04/12 06:53:44;;;;;;;17.38;11.63;;;15.10;99.90;;;;;;5486042;26;19994;-80
2024/04/12 06:56:15;;;;;;;20.48;11.50;;;15.20;99.90;;;;;;5486183;26;20010;-79
2024/04/12 06:58:48;;;;;;;17.10;12.55;;;15.20;99.90;;;;;;5488364;26;20008;-79
2024/04/12 07:01:15;;;;;;;17.88;12.05;;;15.20;99.90;;;;;;5486432;26;19994;-79
2024/04/12 07:03:45;;;;;;;14.77;11.18;;;15.20;99.90;;;;;;5491233;26;19994;-80
2024/04/12 07:06:14;;;;;;;18.88;10.90;;;15.30;99.90;;;;;;5490248;26;20001;-80
2024/04/12 07:08:49;;;;;;;16.85;12.07;;;15.30;99.90;;;;;;5491386;26;20005;-79
2024/04/12 07:11:18;;;;;;;16.60;11.30;;;15.30;99.90;;;;;;5490282;26;19998;-79
2024/04/12 07:13:50;;;;;;;15.55;11.68;;;15.40;99.90;;;;;;5491315;26;20013;-79
2024/04/12 07:16:20;;;;;;;18.33;11.15;;;15.40;99.90;;;;;;5488056;26;20038;-79
2024/04/12 07:18:50;;;;;;;15.13;10.43;;;15.40;99.90;;;;;;5489681;26;20338;-80
2024/04/12 07:21:15;;;;;;;19.03;11.03;;;15.40;99.90;;;;;;5489715;26;19994;-80
2024/04/12 07:23:51;;;;;;;18.27;11.73;;;15.50;99.90;;;;;;5491181;26;20469;-79
2024/04/12 07:26:27;;;;;;;17.42;11.77;;;15.50;99.90;;;;;;5489817;26;20360;-80
2024/04/12 07:28:58;;;;;;;17.88;11.02;;;15.50;99.90;;;;;;5490299;26;19994;-80
2024/04/12 07:31:38;;;;;;;17.58;11.43;;;15.50;99.90;;;;;;5489434;26;20009;-80
2024/04/12 07:34:08;;;;;;;15.40;9.70;;;15.60;99.90;;;;;;5490703;26;20024;-79
2024/04/12 07:36:34;;;;;;;17.20;10.85;;;15.60;99.90;;;;;;5490132;26;20313;-79
2024/04/12 07:39:05;;;;;;;15.35;10.93;;;15.60;99.90;;;;;;5490853;26;20002;-79
2024/04/12 07:41:38;;;;;;;15.82;10.40;;;15.60;99.90;;;;;;5488200;26;20066;-79
2024/04/12 07:44:04;;;;;;;15.32;10.52;;;15.60;99.90;;;;;;5491150;26;19997;-80
2024/04/12 07:46:33;;;;;;;15.80;11.07;;;15.70;99.90;;;;;;5489923;26;20458;-79
2024/04/12 07:49:07;;;;;;;18.27;11.20;;;15.70;99.90;;;;;;5490191;26;19994;-79
2024/04/12 07:51:39;;;;;;;13.68;10.52;;;15.70;99.90;;;;;;5489072;26;20009;-79
2024/04/12 07:54:05;;;;;;;15.80;10.23;;;15.80;99.90;;;;;;5490186;26;19998;-80
2024/04/12 07:56:37;;;;;;;14.85;10.30;;;15.80;99.90;;;;;;5488863;26;20043;-79
2024/04/12 07:59:25;;;;;;;16.83;9.77;;;15.80;99.90;;;;;;5490227;26;19997;-79
2024/04/12 08:01:57;;;;;;;16.20;10.35;;;15.90;99.90;;;;;;5489808;26;20033;-79
2024/04/12 08:04:23;;;;;;;15.45;9.93;;;15.90;99.90;;;;;;5489991;26;19998;-79
2024/04/12 08:06:55;;;;;;;17.63;10.38;;;15.90;99.90;;;;;;5489403;26;20018;-80
2024/04/12 08:09:34;;;;;;;14.02;9.38;;;15.90;99.90;;;;;;5490600;26;20469;-79
2024/04/12 08:12:04;;;;;;;17.05;9.73;;;15.90;99.90;;;;;;5489481;26;19994;-78
2024/04/12 08:14:33;;;;;;;16.08;10.43;;;16.00;99.90;;;;;;5489103;26;20004;-77
2024/04/12 08:17:14;;;;;;;13.50;8.60;;;16.00;99.90;;;;;;5489627;26;19994;-79
2024/04/12 08:19:45;;;;;;;15.20;9.65;;;16.10;99.90;;;;;;5487559;26;19998;-78
2024/04/12 08:22:18;;;;;;;12.38;8.38;;;16.10;99.90;;;;;;5489420;26;20447;-77
2024/04/12 08:24:49;;;;;;;15.50;10.65;;;16.20;99.90;;;;;;5488889;26;20006;-78
2024/04/12 08:27:18;;;;;;;14.48;9.18;;;16.20;99.90;;;;;;5489333;26;20420;-75
2024/04/12 08:29:45;;;;;;;15.00;9.93;;;16.20;99.90;;;;;;5488444;26;20030;-79
2024/04/12 08:34:49;;;;;;;16.42;10.57;;;16.20;99.90;;;;;;5488995;26;19998;-79
2024/04/12 08:37:19;;;;;;;16.48;10.10;;;16.20;99.90;;;;;;5489494;26;20026;-78
2024/04/12 08:39:46;;;;;;;20.05;10.30;;;16.20;99.90;;;;;;5488690;26;20549;-78
2024/04/12 08:42:16;;;;;;;15.82;10.32;;;16.30;99.90;;;;;;5489151;26;20004;-78
2024/04/12 08:44:44;;;;;;;15.43;10.90;;;16.30;99.90;;;;;;5488456;26;20009;-78
2024/04/12 08:50:02;;;;;;;17.88;11.02;;;16.40;99.90;;;;;;5488535;26;20072;-79
2024/04/12 08:52:47;;;;;;;16.05;10.68;;;16.40;99.90;;;;;;5489237;26;20001;-79
2024/04/12 08:55:15;;;;;;;17.88;10.60;;;16.50;99.90;;;;;;5488799;26;20001;-78
2024/04/12 08:57:44;;;;;;;16.38;10.30;;;16.60;99.90;;;;;;5489483;26;20010;-79
2024/04/12 09:00:18;;;;;;;13.90;9.10;;;16.50;99.90;;;;;;5486506;26;19990;-79
2024/04/12 09:02:58;;;;;;;15.48;10.02;;;16.60;99.90;;;;;;5490021;26;19998;-79
2024/04/12 09:05:25;;;;;;;11.37;7.30;;;16.60;99.90;;;;;;5488450;26;19997;-79
2024/04/12 09:08:03;;;;;;;15.40;9.35;;;16.70;99.90;;;;;;5489533;26;20231;-79
2024/04/12 09:10:36;;;;;;;12.63;8.48;;;16.70;99.90;;;;;;5486438;26;19994;-77
2024/04/12 09:13:07;;;;;;;13.18;9.55;;;16.70;99.90;;;;;;5489538;26;19993;-80
2024/04/12 09:15:40;;;;;;;13.05;8.27;;;16.70;99.90;;;;;;5488376;26;19994;-79
2024/04/12 09:18:15;;;;;;;16.40;8.18;;;16.70;99.90;;;;;;5488914;26;20026;-78
2024/04/12 09:20:52;;;;;;;12.70;8.23;;;16.80;99.90;;;;;;5488264;26;19999;-77
2024/04/12 09:23:32;;;;;;;15.40;8.10;;;16.90;99.90;;;;;;5489915;26;20010;-77
2024/04/12 09:25:59;;;;;;;12.73;7.78;;;17.00;99.90;;;;;;5486313;26;19994;-80
2024/04/12 09:28:27;;;;;;;11.02;7.65;;;17.00;99.90;;;;;;5489716;26;20002;-79
2024/04/12 09:33:50;;;;;;;12.40;7.88;;;17.10;99.90;;;;;;5488803;26;20009;-77
2024/04/12 09:36:39;;;;;;;13.57;7.53;;;17.20;99.90;;;;;;5487539;26;20009;-79
2024/04/12 09:39:14;;;;;;;13.10;8.50;;;17.30;99.90;;;;;;5489073;26;19998;-77
2024/04/12 09:41:58;;;;;;;13.30;7.80;;;17.40;99.90;;;;;;5488005;26;20487;-78
2024/04/12 09:44:27;;;;;;;13.50;7.20;;;17.50;99.90;;;;;;5488940;26;20005;-80
2024/04/12 10:37:44;;;;;;;12.57;7.18;;;18.30;99.90;;;;;;5490118;26;20001;-78
2024/04/12 10:40:10;;;;;;;12.15;6.82;;;18.40;99.90;;;;;;5488846;26;20005;-80
2024/04/12 10:42:42;;;;;;;12.98;7.18;;;18.40;99.90;;;;;;5491339;26;20198;-78
2024/04/12 10:45:08;;;;;;;13.55;7.03;;;18.50;99.90;;;;;;5490806;26;20009;-79
2024/04/12 10:47:37;;;;;;;11.40;7.13;;;18.50;99.90;;;;;;5491732;26;19998;-79
2024/04/12 10:50:04;;;;;;;11.77;7.13;;;18.60;99.90;;;;;;5491837;26;20448;-78
2024/04/12 10:52:31;;;;;;;11.52;6.43;;;18.70;99.90;;;;;;5491166;26;20002;-78
2024/04/12 10:55:01;;;;;;;11.55;6.20;;;18.70;99.90;;;;;;5491273;26;19994;-78
2024/04/12 10:57:30;;;;;;;8.98;6.28;;;18.80;99.90;;;;;;5490454;26;20384;-78
2024/04/12 11:00:00;;;;;;;12.63;6.13;;;18.90;99.90;;;;;;5491270;26;19998;-78
2024/04/12 11:02:30;;;;;;;11.00;6.07;;;19.00;99.90;;;;;;5490185;26;19994;-78
2024/04/12 11:05:24;;;;;;;12.80;6.47;;;19.10;99.90;;;;;;5489643;26;19994;-78
2024/04/12 11:07:51;;;;;;;9.15;5.50;;;19.20;99.90;;;;;;5488871;26;19994;-78
2024/04/12 11:10:25;;;;;;;12.65;6.20;;;19.40;99.90;;;;;;5488984;26;20451;-78
2024/04/12 11:13:06;;;;;;;10.80;5.55;;;19.50;99.90;;;;;;5491161;26;19994;-78
2024/04/12 11:31:55;;;;;;;9.75;5.05;;;20.20;99.90;;;;;;5490379;26;20004;-78
2024/04/12 11:34:23;;;;;;;11.18;4.95;;;20.10;99.90;;;;;;5490922;26;20324;-78
2024/04/12 11:36:53;;;;;;;12.40;5.40;;;20.00;99.90;;;;;;5489911;26;20013;-78
2024/04/12 11:39:26;;;;;;;9.30;4.78;;;20.00;99.90;;;;;;5488760;26;20069;-78
2024/04/12 11:41:56;;;;;;;7.20;3.67;;;20.10;99.90;;;;;;5490398;26;19994;-79
2024/04/12 11:44:22;;;;;;;8.88;4.80;;;20.30;99.90;;;;;;5490857;26;19998;-78
2024/04/12 11:46:49;;;;;;;10.27;4.80;;;20.40;99.90;;;;;;5490385;26;20465;-78
2024/04/12 11:49:25;;;;;;;9.80;4.65;;;20.60;99.90;;;;;;5489202;26;19998;-78
2024/04/12 11:52:03;;;;;;;9.50;4.60;;;20.70;99.90;;;;;;5491361;26;19994;-78
2024/04/12 11:54:30;;;;;;;7.57;3.92;;;20.90;99.90;;;;;;5491456;26;20009;-78
2024/04/12 11:57:00;;;;;;;7.10;4.07;;;21.00;99.90;;;;;;5488744;26;20455;-78
2024/04/12 11:59:30;;;;;;;7.95;3.95;;;21.10;99.90;;;;;;5490659;26;19998;-79
2024/04/12 12:01:59;;;;;;;8.18;4.22;;;21.10;99.90;;;;;;5490478;26;20009;-78
2024/04/12 12:04:26;;;;;;;12.05;3.78;;;21.00;99.90;;;;;;5490881;26;19994;-78
2024/04/12 12:06:52;;;;;;;8.05;4.30;;;21.00;99.90;;;;;;5490292;26;19998;-79
2024/04/12 12:09:20;;;;;;;7.68;4.55;;;21.00;99.90;;;;;;5490367;26;20021;-78
2024/04/12 12:11:49;;;;;;;9.98;4.32;;;21.10;99.90;;;;;;5489288;26;20009;-78
2024/04/12 12:14:15;;;;;;;10.18;4.47;;;21.20;99.90;;;;;;5491672;26;20012;-79
2024/04/12 12:16:41;;;;;;;7.53;3.90;;;21.20;99.90;;;;;;5489917;26;20001;-78
2024/04/12 12:19:07;;;;;;;8.43;4.50;;;21.30;99.90;;;;;;5490442;26;20025;-79
2024/04/12 12:21:33;;;;;;;5.80;3.95;;;21.30;99.90;;;;;;5489610;26;19998;-78
2024/04/12 12:23:59;;;;;;;8.55;4.00;;;21.20;99.90;;;;;;5490912;26;19994;-78
2024/04/12 12:26:25;;;;;;;9.13;4.70;;;21.20;99.90;;;;;;5489299;26;20347;-78
2024/04/12 12:28:51;;;;;;;7.03;4.05;;;21.30;99.90;;;;;;5490838;26;20066;-79
2024/04/12 12:31:18;;;;;;;7.60;4.43;;;21.30;99.90;;;;;;5489502;26;20463;-78
2024/04/12 12:33:45;;;;;;;7.90;4.28;;;21.30;99.90;;;;;;5490880;26;19998;-79
2024/04/12 12:36:11;;;;;;;10.15;4.57;;;21.40;99.90;;;;;;5490164;26;20005;-78
2024/04/12 12:38:40;;;;;;;12.70;4.50;;;21.40;99.90;;;;;;5490816;26;20039;-78
2024/04/12 12:41:10;;;;;;;6.90;4.28;;;21.40;99.90;;;;;;5491184;26;19997;-79
2024/04/12 12:43:40;;;;;;;8.10;3.63;;;21.40;99.90;;;;;;5490704;26;20005;-78
2024/04/12 12:46:07;;;;;;;7.55;3.50;;;21.30;99.90;;;;;;5487739;26;20070;-78
2024/04/12 12:48:33;;;;;;;5.55;3.03;;;21.30;99.90;;;;;;5491384;26;20003;-79
2024/04/12 12:50:59;;;;;;;7.90;3.42;;;21.30;99.90;;;;;;5487371;26;20531;-79
2024/04/12 12:53:27;;;;;;;6.57;3.58;;;21.30;99.90;;;;;;5491623;26;19994;-79
2024/04/12 12:55:55;;;;;;;6.63;3.60;;;21.30;99.90;;;;;;5489020;26;19994;-78
2024/04/12 12:58:24;;;;;;;8.43;3.33;;;21.30;99.90;;;;;;5489862;26;20005;-79
2024/04/12 13:00:50;;;;;;;7.25;3.95;;;21.40;99.90;;;;;;5488903;26;19995;-79
2024/04/12 13:03:25;;;;;;;7.00;3.47;;;21.50;99.90;;;;;;5489771;26;20447;-79
2024/04/12 13:05:52;;;;;;;9.60;4.40;;;21.60;99.90;;;;;;5488782;26;20005;-78
2024/04/12 13:08:20;;;;;;;9.45;4.25;;;21.60;99.90;;;;;;5489128;26;19998;-79
2024/04/12 13:10:48;;;;;;;7.53;4.30;;;21.60;99.90;;;;;;5489428;26;19994;-79
2024/04/12 13:13:23;;;;;;;6.97;4.78;;;21.60;99.90;;;;;;5487552;26;20009;-79
2024/04/12 13:15:56;;;;;;;8.07;4.70;;;21.70;99.90;;;;;;5489130;26;20002;-79
2024/04/12 13:18:27;;;;;;;9.07;4.85;;;21.70;99.90;;;;;;5487486;26;19994;-78
2024/04/12 13:20:55;;;;;;;8.95;4.13;;;21.80;99.90;;;;;;5488761;26;20336;-79
2024/04/12 13:23:25;;;;;;;8.02;3.70;;;21.80;99.90;;;;;;5489039;26;20022;-78
2024/04/12 13:25:53;;;;;;;7.10;3.47;;;21.80;99.90;;;;;;5489554;26;20009;-79
2024/04/12 13:28:18;;;;;;;7.88;3.90;;;21.80;99.90;;;;;;5488918;26;20451;-79
2024/04/12 13:30:44;;;;;;;13.38;3.67;;;21.70;99.90;;;;;;5488841;26;20074;-79
2024/04/12 13:33:10;;;;;;;6.00;2.92;;;21.70;99.90;;;;;;5488534;26;20002;-79
2024/04/12 13:35:40;;;;;;;5.97;3.17;;;21.60;99.90;;;;;;5488788;26;20070;-79
2024/04/12 13:38:14;;;;;;;6.75;3.20;;;21.50;99.90;;;;;;5488947;26;20010;-78
2024/04/12 13:40:42;;;;;;;5.28;3.42;;;21.50;99.90;;;;;;5489165;26;20009;-78
2024/04/12 13:43:13;;;;;;;6.88;3.58;;;21.40;99.90;;;;;;5488924;26;20356;-79
2024/04/12 13:51:15;;;;;;;7.40;3.63;;;21.20;99.90;;;;;;5488610;26;20035;-79
2024/04/12 13:53:45;;;;;;;6.53;3.85;;;21.20;99.90;;;;;;5488686;26;19998;-78
2024/04/12 13:56:19;;;;;;;9.15;4.80;;;21.20;99.90;;;;;;5487728;26;20005;-78
2024/04/12 13:58:53;;;;;;;8.13;4.53;;;21.20;99.90;;;;;;5486797;26;20111;-79
2024/04/12 14:01:22;;;;;;;8.20;4.22;;;21.20;99.90;;;;;;5488787;26;20030;-79
2024/04/12 14:04:04;;;;;;;8.47;4.43;;;21.20;99.90;;;;;;5488345;26;20005;-78
2024/04/12 14:06:34;;;;;;;9.82;4.68;;;21.20;99.90;;;;;;5488123;26;19998;-79
2024/04/12 14:09:08;;;;;;;8.77;4.68;;;21.40;99.90;;;;;;5488246;26;19998;-78
2024/04/12 14:11:34;;;;;;;10.93;4.82;;;21.50;99.90;;;;;;5486802;26;20463;-79
2024/04/12 14:14:03;;;;;;;9.30;4.93;;;21.60;99.90;;;;;;5488131;26;20005;-79
2024/04/12 14:16:32;;;;;;;10.68;5.10;;;21.60;99.90;;;;;;5488159;26;20002;-79